Time;durP1;ratioP1;P1;durP2;ratioP2;P2;SDS_P1;SDS_P2;PMS_P1;PMS_P2;Temp;Humidity;BMP_temperature;BMP_pressure;BME280_temperature;BME280_humidity;BME280_pressure;Samples;Min_cycle;Max_cycle;Signal;HPM_P1;HPM_P2
2021/05/04 00:01:09;;;;;;;7.32;2.53;;;8.80;99.90;;;;;;5013648;28;20034;-63
2021/05/04 00:03:35;;;;;;;4.35;2.35;;;8.80;99.90;;;;;;5013645;28;20441;-63
2021/05/04 00:06:00;;;;;;;5.97;2.55;;;8.80;99.90;;;;;;5013655;28;20065;-63
2021/05/04 00:08:26;;;;;;;4.47;2.83;;;8.80;99.90;;;;;;5013551;28;20064;-63
2021/05/04 00:10:52;;;;;;;4.22;2.65;;;8.90;99.90;;;;;;5013440;28;20079;-63
2021/05/04 00:13:17;;;;;;;4.85;2.58;;;9.00;99.90;;;;;;5013143;28;20038;-63
2021/05/04 00:15:43;;;;;;;3.90;2.40;;;9.10;99.90;;;;;;5013422;28;20033;-64
2021/05/04 00:18:09;;;;;;;3.58;2.30;;;9.10;99.90;;;;;;5012338;28;20106;-64
2021/05/04 00:20:35;;;;;;;5.07;2.63;;;9.00;99.90;;;;;;5011771;28;20042;-64
2021/05/04 00:23:00;;;;;;;3.67;2.33;;;9.00;99.90;;;;;;5013030;28;20049;-64
2021/05/04 00:25:27;;;;;;;5.63;2.35;;;9.00;99.90;;;;;;5013371;28;20394;-63
2021/05/04 00:27:53;;;;;;;4.38;2.38;;;9.00;99.90;;;;;;5012258;28;20151;-63
2021/05/04 00:30:19;;;;;;;4.03;2.47;;;9.00;99.90;;;;;;5012987;28;20461;-63
2021/05/04 00:32:45;;;;;;;4.43;2.55;;;9.00;99.90;;;;;;5012535;28;20041;-63
2021/05/04 00:35:11;;;;;;;4.45;2.80;;;9.00;99.90;;;;;;5013107;28;20029;-63
2021/05/04 00:37:37;;;;;;;5.30;2.90;;;9.00;99.90;;;;;;5013142;28;20030;-63
2021/05/04 00:40:04;;;;;;;4.60;2.60;;;9.00;99.90;;;;;;5013163;28;20562;-63
2021/05/04 00:42:30;;;;;;;6.07;2.65;;;9.00;99.90;;;;;;5012762;28;20128;-63
2021/05/04 00:44:55;;;;;;;4.85;2.50;;;9.20;99.90;;;;;;5011606;28;20066;-63
2021/05/04 00:47:21;;;;;;;4.22;2.28;;;9.20;99.90;;;;;;5011765;28;20030;-63
2021/05/04 00:49:47;;;;;;;5.72;2.53;;;9.30;99.90;;;;;;5012994;28;20470;-63
2021/05/04 00:52:13;;;;;;;3.80;2.40;;;9.30;99.90;;;;;;5012849;28;20037;-63
2021/05/04 00:54:40;;;;;;;4.63;2.47;;;9.30;99.90;;;;;;5012930;28;20030;-64
2021/05/04 00:57:08;;;;;;;6.47;2.22;;;9.30;99.90;;;;;;5012732;28;20533;-64
2021/05/04 00:59:36;;;;;;;4.72;2.55;;;9.30;99.90;;;;;;5012583;28;20042;-63
2021/05/04 01:02:02;;;;;;;4.78;2.13;;;9.40;99.90;;;;;;5011792;28;20030;-63
2021/05/04 01:04:28;;;;;;;5.18;2.70;;;9.40;99.90;;;;;;5012629;28;20091;-63
2021/05/04 01:06:54;;;;;;;5.30;2.58;;;9.50;99.90;;;;;;5011690;28;20030;-63
2021/05/04 01:09:21;;;;;;;7.65;2.78;;;9.50;99.90;;;;;;5012640;28;20034;-63
2021/05/04 01:11:47;;;;;;;8.20;2.42;;;9.40;99.90;;;;;;5012467;28;20022;-63
2021/05/04 01:14:14;;;;;;;4.43;2.75;;;9.40;99.90;;;;;;5012628;28;20029;-63
2021/05/04 01:16:49;;;;;;;3.78;2.30;;;9.40;99.90;;;;;;5012709;28;20030;-61
2021/05/04 01:19:17;;;;;;;3.75;2.08;;;9.40;99.90;;;;;;5012551;28;20038;-63
2021/05/04 01:21:43;;;;;;;3.95;2.47;;;9.50;99.90;;;;;;5011239;28;20177;-63
2021/05/04 01:24:10;;;;;;;4.43;2.67;;;9.40;99.90;;;;;;5012540;28;20034;-62
2021/05/04 01:26:36;;;;;;;3.70;1.92;;;9.40;99.90;;;;;;5011325;28;20144;-62
2021/05/04 01:29:03;;;;;;;5.35;2.53;;;9.40;99.90;;;;;;5012595;28;20049;-63
2021/05/04 01:31:29;;;;;;;3.95;2.42;;;9.40;99.90;;;;;;5012204;28;20037;-62
2021/05/04 01:33:56;;;;;;;3.65;2.10;;;9.50;99.90;;;;;;5012291;28;20124;-62
2021/05/04 01:36:22;;;;;;;4.72;2.20;;;9.50;99.90;;;;;;5012291;28;20041;-62
2021/05/04 01:38:47;;;;;;;4.55;2.22;;;9.60;99.90;;;;;;5012419;28;20037;-63
2021/05/04 01:41:13;;;;;;;3.20;2.10;;;9.60;99.90;;;;;;5012519;28;20426;-63
2021/05/04 01:43:39;;;;;;;6.18;2.33;;;9.70;99.90;;;;;;5012230;28;20026;-62
2021/05/04 01:46:05;;;;;;;3.70;2.33;;;9.60;99.90;;;;;;5014438;28;20030;-63
2021/05/04 01:48:30;;;;;;;3.60;2.00;;;9.60;99.90;;;;;;5016077;28;20080;-63
2021/05/04 01:50:56;;;;;;;6.30;2.42;;;9.60;99.90;;;;;;5016004;28;20111;-62
2021/05/04 01:53:22;;;;;;;4.10;2.22;;;9.60;99.90;;;;;;5015989;28;20498;-63
2021/05/04 01:55:48;;;;;;;4.05;2.35;;;9.60;99.90;;;;;;5014935;28;20542;-62
2021/05/04 01:58:13;;;;;;;3.60;2.10;;;9.50;99.90;;;;;;5015860;28;20065;-63
2021/05/04 02:00:39;;;;;;;5.10;2.50;;;9.50;99.90;;;;;;5015763;28;20499;-63
2021/05/04 02:03:05;;;;;;;6.35;2.33;;;9.40;99.90;;;;;;4998182;28;20034;-62
2021/05/04 02:05:31;;;;;;;3.67;2.22;;;9.30;99.90;;;;;;5015938;28;20033;-61
2021/05/04 02:07:57;;;;;;;6.25;2.60;;;9.30;99.90;;;;;;5015977;28;20033;-61
2021/05/04 02:10:22;;;;;;;5.53;2.38;;;9.30;99.90;;;;;;4998098;28;20470;-62
2021/05/04 02:12:48;;;;;;;4.15;2.33;;;9.20;99.90;;;;;;5015834;28;20156;-62
2021/05/04 02:15:14;;;;;;;4.18;2.72;;;9.20;99.90;;;;;;5015871;28;20084;-62
2021/05/04 02:17:40;;;;;;;4.82;2.42;;;9.10;99.90;;;;;;5015454;28;20386;-62
2021/05/04 02:20:07;;;;;;;6.35;3.60;;;9.10;99.90;;;;;;5015592;28;20026;-62
2021/05/04 02:22:33;;;;;;;4.60;2.42;;;9.00;99.90;;;;;;5015195;28;20406;-63
2021/05/04 02:25:01;;;;;;;5.40;2.85;;;9.00;99.90;;;;;;5015494;28;20160;-63
2021/05/04 02:27:26;;;;;;;4.13;2.25;;;8.90;99.90;;;;;;4997742;28;20454;-62
2021/05/04 02:29:52;;;;;;;4.03;2.50;;;9.00;99.90;;;;;;5015640;28;20030;-62
2021/05/04 02:32:18;;;;;;;6.13;2.70;;;8.90;99.90;;;;;;5015536;28;20486;-62
2021/05/04 02:34:43;;;;;;;7.82;3.25;;;8.90;99.90;;;;;;5015256;28;20548;-62
2021/05/04 02:37:09;;;;;;;4.00;2.30;;;8.90;99.90;;;;;;5015129;28;20026;-63
2021/05/04 02:39:35;;;;;;;4.78;2.60;;;8.90;99.90;;;;;;4997347;28;20037;-63
2021/05/04 02:42:01;;;;;;;5.47;3.55;;;8.90;99.90;;;;;;5015423;28;20411;-63
2021/05/04 02:44:27;;;;;;;4.97;3.00;;;8.90;99.90;;;;;;5014975;28;20034;-62
2021/05/04 02:46:52;;;;;;;9.75;2.55;;;8.90;99.90;;;;;;5015344;28;20467;-63
2021/05/04 02:49:18;;;;;;;4.68;2.70;;;8.90;99.90;;;;;;5015043;28;20084;-62
2021/05/04 02:51:44;;;;;;;7.00;3.08;;;8.90;99.90;;;;;;5014771;28;20497;-63
2021/05/04 02:54:10;;;;;;;6.63;2.65;;;8.90;99.90;;;;;;5014902;28;20042;-63
2021/05/04 02:56:37;;;;;;;4.63;3.08;;;8.80;99.90;;;;;;5013227;28;20030;-62
2021/05/04 02:59:03;;;;;;;5.38;2.80;;;8.70;99.90;;;;;;5014900;28;20086;-63
2021/05/04 03:01:29;;;;;;;4.80;2.67;;;8.70;99.90;;;;;;5014935;28;20026;-63
2021/05/04 03:03:55;;;;;;;5.07;2.75;;;8.70;99.90;;;;;;5014659;28;20116;-63
2021/05/04 03:06:20;;;;;;;5.10;2.90;;;8.60;99.90;;;;;;5013355;28;20030;-63
2021/05/04 03:08:46;;;;;;;3.45;2.35;;;8.60;99.90;;;;;;5014571;28;20030;-63
2021/05/04 03:11:12;;;;;;;4.78;2.80;;;8.70;99.90;;;;;;5014601;28;20044;-63
2021/05/04 03:13:38;;;;;;;5.25;2.70;;;8.70;99.90;;;;;;5014367;28;20402;-62
2021/05/04 03:16:04;;;;;;;5.72;3.00;;;8.70;99.90;;;;;;5014456;28;20038;-62
2021/05/04 03:18:30;;;;;;;4.28;2.55;;;8.70;99.90;;;;;;5013048;28;20045;-63
2021/05/04 03:20:56;;;;;;;4.80;2.28;;;8.70;99.90;;;;;;5014382;28;20029;-62
2021/05/04 03:23:23;;;;;;;5.07;3.00;;;8.70;99.90;;;;;;5014430;28;20078;-62
2021/05/04 03:25:50;;;;;;;5.22;2.83;;;8.70;99.90;;;;;;5013330;28;20061;-63
2021/05/04 03:28:16;;;;;;;5.00;2.50;;;8.70;99.90;;;;;;5013343;28;20048;-62
2021/05/04 03:30:43;;;;;;;3.85;2.50;;;8.90;99.90;;;;;;5014339;28;20064;-62
2021/05/04 03:33:09;;;;;;;4.25;2.90;;;8.90;99.90;;;;;;5014300;28;20459;-62
2021/05/04 03:35:35;;;;;;;4.50;2.58;;;8.90;99.90;;;;;;5012694;28;20339;-62
2021/05/04 03:38:01;;;;;;;4.18;2.20;;;8.80;99.90;;;;;;5013062;28;20032;-63
2021/05/04 03:40:28;;;;;;;3.90;2.50;;;8.80;99.90;;;;;;5013937;28;20085;-63
2021/05/04 03:42:55;;;;;;;3.75;2.30;;;8.90;99.90;;;;;;5019647;28;20083;-63
2021/05/04 03:45:21;;;;;;;4.05;2.22;;;8.90;99.90;;;;;;5014603;28;20025;-63
2021/05/04 03:47:47;;;;;;;7.20;2.72;;;8.90;99.90;;;;;;5013942;28;20414;-64
2021/05/04 03:50:21;;;;;;;5.15;2.55;;;8.90;99.90;;;;;;5013342;28;20472;-63
2021/05/04 03:52:49;;;;;;;5.38;2.22;;;8.90;99.90;;;;;;5013814;28;20038;-64
2021/05/04 03:55:15;;;;;;;4.38;2.40;;;9.00;99.90;;;;;;5012528;28;20136;-63
2021/05/04 03:57:41;;;;;;;6.20;2.38;;;9.00;99.90;;;;;;5013782;28;20175;-65
2021/05/04 04:00:10;;;;;;;3.15;1.92;;;8.90;99.90;;;;;;5013530;28;20030;-65
2021/05/04 04:02:36;;;;;;;9.65;2.28;;;9.00;99.90;;;;;;5013354;28;20033;-64
2021/05/04 04:05:04;;;;;;;5.95;2.30;;;8.90;99.90;;;;;;5013703;28;20032;-63
2021/05/04 04:07:30;;;;;;;5.72;2.38;;;8.90;99.90;;;;;;5012998;28;20065;-63
2021/05/04 04:09:56;;;;;;;6.80;2.50;;;8.90;99.90;;;;;;5013329;28;20426;-63
2021/05/04 04:12:21;;;;;;;5.82;2.58;;;8.90;99.90;;;;;;5013465;28;20034;-63
2021/05/04 04:14:47;;;;;;;5.22;2.53;;;9.00;99.90;;;;;;5013333;28;20038;-64
2021/05/04 04:17:13;;;;;;;6.05;3.33;;;8.90;99.90;;;;;;5013351;28;20030;-63
2021/05/04 04:19:38;;;;;;;5.65;3.22;;;8.90;99.90;;;;;;5012135;28;20037;-62
2021/05/04 04:22:04;;;;;;;6.32;2.63;;;8.90;99.90;;;;;;4995434;28;20042;-62
2021/05/04 04:24:30;;;;;;;5.93;2.13;;;8.90;99.90;;;;;;4995555;28;20092;-62
2021/05/04 04:26:56;;;;;;;7.55;2.70;;;8.80;99.90;;;;;;5013465;28;20037;-64
2021/05/04 04:29:22;;;;;;;5.68;2.50;;;8.70;99.90;;;;;;5013195;28;20057;-63
2021/05/04 04:31:48;;;;;;;6.65;2.25;;;8.70;99.90;;;;;;4985587;28;20490;-64
2021/05/04 04:34:14;;;;;;;5.25;2.40;;;8.70;99.90;;;;;;4998373;28;20077;-64
2021/05/04 04:36:39;;;;;;;4.85;2.67;;;8.70;99.90;;;;;;5032950;28;20029;-64
2021/05/04 04:39:05;;;;;;;4.57;2.58;;;8.60;99.90;;;;;;5032903;28;20447;-64
2021/05/04 04:41:32;;;;;;;4.97;2.75;;;8.60;99.90;;;;;;5032808;28;20545;-65
2021/05/04 04:43:58;;;;;;;5.47;2.60;;;8.70;99.90;;;;;;5039866;28;20031;-64
2021/05/04 04:46:23;;;;;;;7.68;2.85;;;8.70;99.90;;;;;;5052763;28;20037;-64
2021/05/04 04:48:49;;;;;;;4.80;2.72;;;8.80;99.90;;;;;;5052619;28;20408;-63
2021/05/04 04:51:15;;;;;;;7.68;2.80;;;8.80;99.90;;;;;;5052284;28;20037;-63
2021/05/04 04:53:40;;;;;;;4.65;2.88;;;8.90;99.90;;;;;;5037729;28;20509;-64
2021/05/04 04:56:06;;;;;;;5.10;2.75;;;8.90;99.90;;;;;;5032292;28;20482;-66
2021/05/04 04:58:32;;;;;;;7.38;2.83;;;8.90;99.90;;;;;;5032025;28;20068;-63
2021/05/04 05:00:58;;;;;;;3.58;2.38;;;9.00;99.90;;;;;;5032744;28;20195;-65
2021/05/04 05:03:24;;;;;;;6.32;2.75;;;9.00;99.90;;;;;;5032490;28;20541;-63
2021/05/04 05:05:53;;;;;;;4.05;2.40;;;9.00;99.90;;;;;;5032365;28;20052;-64
2021/05/04 05:08:19;;;;;;;4.40;2.55;;;9.10;99.90;;;;;;5032227;28;20482;-64
2021/05/04 05:10:44;;;;;;;4.72;2.88;;;9.10;99.90;;;;;;5014686;28;20037;-63
2021/05/04 05:13:11;;;;;;;4.93;2.90;;;9.30;99.90;;;;;;5032829;28;20038;-64
2021/05/04 05:15:40;;;;;;;5.28;2.47;;;9.40;99.90;;;;;;5051809;28;20025;-63
2021/05/04 05:18:06;;;;;;;6.97;2.65;;;9.60;99.90;;;;;;5051075;28;20035;-63
2021/05/04 05:20:35;;;;;;;3.47;2.08;;;9.90;99.90;;;;;;5051580;28;20429;-64
2021/05/04 05:23:01;;;;;;;4.20;2.30;;;10.10;99.90;;;;;;5051734;28;20124;-64
2021/05/04 05:25:28;;;;;;;6.22;2.47;;;10.20;99.90;;;;;;5050770;28;20033;-64
2021/05/04 05:27:54;;;;;;;4.47;2.17;;;10.30;99.90;;;;;;5051722;28;20496;-64
2021/05/04 05:30:20;;;;;;;4.70;2.60;;;10.40;99.90;;;;;;5051750;28;20033;-64
2021/05/04 05:32:46;;;;;;;5.13;2.25;;;10.50;99.90;;;;;;5051801;28;20052;-65
2021/05/04 05:35:12;;;;;;;2.92;1.90;;;10.50;99.90;;;;;;5034297;28;20063;-64
2021/05/04 05:37:37;;;;;;;4.00;1.85;;;10.70;99.90;;;;;;5050635;28;20052;-64
2021/05/04 05:40:04;;;;;;;2.95;1.60;;;10.80;99.90;;;;;;5051996;28;20028;-64
2021/05/04 05:42:30;;;;;;;6.70;1.92;;;10.90;99.90;;;;;;5052009;28;20425;-63
2021/05/04 05:44:56;;;;;;;7.15;1.92;;;11.00;99.30;;;;;;5036336;28;20034;-64
2021/05/04 05:47:21;;;;;;;5.75;2.17;;;11.10;99.10;;;;;;5030902;28;20033;-64
2021/05/04 05:49:47;;;;;;;3.97;2.22;;;11.10;99.30;;;;;;5033686;28;20457;-64
2021/05/04 05:52:13;;;;;;;4.88;1.95;;;11.10;99.00;;;;;;5032023;28;20037;-64
2021/05/04 05:54:39;;;;;;;5.03;1.90;;;11.10;99.00;;;;;;5013987;28;20061;-64
2021/05/04 05:57:05;;;;;;;3.13;1.95;;;11.20;99.00;;;;;;5032141;28;20048;-64
2021/05/04 05:59:31;;;;;;;3.88;2.10;;;11.20;98.80;;;;;;5031583;28;20482;-64
2021/05/04 06:01:57;;;;;;;3.45;1.92;;;11.20;99.20;;;;;;5031882;28;20034;-71
2021/05/04 06:04:23;;;;;;;3.40;2.08;;;11.20;98.90;;;;;;5030626;28;20030;-63
2021/05/04 06:06:49;;;;;;;4.50;2.00;;;11.20;98.90;;;;;;5031423;28;20026;-63
2021/05/04 06:09:14;;;;;;;2.60;1.60;;;11.30;98.60;;;;;;5032035;28;20041;-62
2021/05/04 06:11:40;;;;;;;4.68;1.98;;;11.30;98.40;;;;;;5031910;28;20466;-63
2021/05/04 06:14:06;;;;;;;3.70;1.88;;;11.40;98.50;;;;;;5039942;28;20135;-64
2021/05/04 06:16:32;;;;;;;6.75;1.98;;;11.40;97.90;;;;;;5051579;28;20040;-64
2021/05/04 06:18:58;;;;;;;3.45;1.88;;;11.40;98.30;;;;;;5050189;28;20108;-64
2021/05/04 06:21:24;;;;;;;2.72;1.80;;;11.50;97.90;;;;;;5051481;28;20575;-64
2021/05/04 06:23:51;;;;;;;3.75;1.85;;;11.60;97.60;;;;;;5051225;28;20029;-64
2021/05/04 06:26:18;;;;;;;5.78;2.05;;;11.60;97.40;;;;;;5051614;28;20040;-63
2021/05/04 06:28:49;;;;;;;3.45;2.17;;;11.70;97.40;;;;;;5050181;28;20025;-64
2021/05/04 06:31:17;;;;;;;2.70;1.70;;;11.70;97.30;;;;;;5052235;28;20029;-64
2021/05/04 06:33:43;;;;;;;7.80;1.90;;;11.80;96.80;;;;;;5054851;28;20033;-64
2021/05/04 06:36:10;;;;;;;3.90;1.65;;;11.90;96.20;;;;;;5053893;28;20108;-64
2021/05/04 06:38:36;;;;;;;3.63;1.90;;;12.00;96.30;;;;;;5054881;28;20099;-64
2021/05/04 06:41:03;;;;;;;3.63;2.03;;;12.10;96.10;;;;;;5053833;28;20600;-67
2021/05/04 06:43:31;;;;;;;4.75;1.80;;;12.10;95.70;;;;;;5050152;28;20029;-64
2021/05/04 06:45:58;;;;;;;6.35;1.73;;;12.20;95.60;;;;;;5033576;28;20037;-64
2021/05/04 06:48:25;;;;;;;3.22;1.80;;;12.20;95.70;;;;;;5034649;28;20056;-64
2021/05/04 06:50:52;;;;;;;7.78;1.83;;;12.30;95.30;;;;;;5033482;28;20084;-63
2021/05/04 06:53:18;;;;;;;5.55;1.88;;;12.30;95.40;;;;;;5033214;28;20056;-64
2021/05/04 06:55:46;;;;;;;2.88;1.58;;;12.40;94.90;;;;;;5034765;28;20064;-63
2021/05/04 06:58:12;;;;;;;3.22;1.65;;;12.40;94.80;;;;;;5034898;28;20116;-63
2021/05/04 07:00:37;;;;;;;5.57;1.60;;;12.50;94.80;;;;;;5034617;28;20121;-62
2021/05/04 07:03:04;;;;;;;4.45;1.77;;;12.60;94.80;;;;;;5034777;28;20057;-64
2021/05/04 07:05:30;;;;;;;3.13;1.50;;;12.60;94.10;;;;;;5034613;28;20060;-63
2021/05/04 07:07:56;;;;;;;4.55;2.00;;;12.60;94.20;;;;;;5034554;28;20037;-63
2021/05/04 07:10:22;;;;;;;3.40;1.60;;;12.70;94.00;;;;;;5034373;28;20391;-63
2021/05/04 07:12:48;;;;;;;3.13;1.30;;;12.70;94.00;;;;;;5034501;28;20021;-63
2021/05/04 07:15:14;;;;;;;2.72;1.58;;;12.80;93.30;;;;;;5050703;28;20044;-63
2021/05/04 07:17:41;;;;;;;6.60;1.60;;;12.90;93.60;;;;;;5054264;28;20018;-63
2021/05/04 07:20:07;;;;;;;2.92;1.55;;;12.90;92.60;;;;;;5054151;28;20064;-63
2021/05/04 07:22:34;;;;;;;4.72;2.13;;;12.90;93.30;;;;;;5053882;28;20037;-63
2021/05/04 07:25:01;;;;;;;3.72;1.65;;;13.00;93.60;;;;;;5053897;28;20106;-63
2021/05/04 07:27:27;;;;;;;3.75;1.55;;;13.00;92.90;;;;;;5053883;28;20032;-63
2021/05/04 07:29:53;;;;;;;3.80;1.80;;;13.00;93.40;;;;;;5053897;28;20041;-62
2021/05/04 07:32:19;;;;;;;6.00;1.45;;;13.10;90.00;;;;;;5053886;28;20171;-63
2021/05/04 07:34:46;;;;;;;16.60;2.42;;;13.30;83.90;;;;;;5053612;28;20427;-63
2021/05/04 07:37:12;;;;;;;9.95;1.38;;;13.70;72.30;;;;;;5053705;28;20492;-63
2021/05/04 07:39:40;;;;;;;10.00;1.27;;;13.90;69.00;;;;;;5053926;28;20065;-63
2021/05/04 07:42:07;;;;;;;8.63;1.30;;;14.10;66.80;;;;;;5053864;28;20032;-63
2021/05/04 07:44:33;;;;;;;12.93;0.93;;;14.20;66.40;;;;;;5041708;28;20064;-64
2021/05/04 07:47:00;;;;;;;8.40;1.67;;;14.10;66.20;;;;;;5033856;28;20025;-63
2021/05/04 07:49:35;;;;;;;11.93;1.77;;;14.20;65.80;;;;;;5033775;28;20043;-63
2021/05/04 07:52:01;;;;;;;6.13;0.85;;;14.30;65.40;;;;;;5035813;28;20025;-63
2021/05/04 07:54:27;;;;;;;2.67;1.02;;;14.30;64.70;;;;;;5033759;28;20040;-63
2021/05/04 07:56:53;;;;;;;7.10;1.23;;;14.20;64.30;;;;;;5033509;28;20032;-64
2021/05/04 07:59:19;;;;;;;12.82;0.95;;;14.20;65.00;;;;;;5033506;28;20033;-62
2021/05/04 08:01:45;;;;;;;8.60;1.30;;;14.30;64.50;;;;;;5033487;28;20034;-62
2021/05/04 08:04:12;;;;;;;13.80;1.80;;;14.40;64.90;;;;;;5033638;28;20117;-62
2021/05/04 08:06:38;;;;;;;3.05;0.90;;;14.40;64.20;;;;;;5033209;28;20099;-63
2021/05/04 08:09:07;;;;;;;17.42;1.88;;;14.30;64.80;;;;;;5031955;28;20040;-44
2021/05/04 08:11:33;;;;;;;3.88;0.75;;;14.30;67.30;;;;;;5033418;28;20029;-63
2021/05/04 08:13:59;;;;;;;2.50;1.10;;;14.40;67.40;;;;;;5039261;28;20029;-62
2021/05/04 08:16:25;;;;;;;4.00;0.90;;;14.40;68.70;;;;;;5053197;28;20059;-62
2021/05/04 08:18:52;;;;;;;4.38;1.05;;;14.30;70.00;;;;;;5052838;28;20033;-62
2021/05/04 08:21:20;;;;;;;22.55;1.80;;;14.10;73.80;;;;;;5034980;28;20110;-62
2021/05/04 08:23:46;;;;;;;5.55;0.95;;;14.00;76.10;;;;;;5051316;28;20056;-64
2021/05/04 08:26:13;;;;;;;7.90;1.00;;;13.90;77.40;;;;;;5053052;28;20051;-63
2021/05/04 08:28:39;;;;;;;11.70;1.20;;;13.80;78.80;;;;;;5052791;28;20021;-63
2021/05/04 08:31:05;;;;;;;10.38;1.23;;;13.70;80.70;;;;;;5052537;28;20044;-63
2021/05/04 08:33:31;;;;;;;4.93;1.10;;;13.60;82.00;;;;;;5052601;28;20028;-63
2021/05/04 08:35:56;;;;;;;1.35;0.73;;;13.60;83.20;;;;;;5034692;28;20474;-63
2021/05/04 08:38:22;;;;;;;1.67;1.00;;;13.60;84.10;;;;;;5052682;28;20035;-63
2021/05/04 08:40:48;;;;;;;3.42;1.10;;;13.60;84.80;;;;;;5052715;28;20033;-63
2021/05/04 08:43:21;;;;;;;2.00;0.93;;;13.60;85.10;;;;;;5051110;28;20717;-63
2021/05/04 08:45:55;;;;;;;2.80;0.98;;;13.60;85.00;;;;;;5032644;28;20036;-63
2021/05/04 08:48:22;;;;;;;4.68;0.88;;;13.50;85.90;;;;;;5031649;28;20037;-63
2021/05/04 08:50:48;;;;;;;1.52;0.85;;;13.50;86.80;;;;;;5014739;28;20037;-63
2021/05/04 08:53:15;;;;;;;2.50;0.90;;;13.50;87.30;;;;;;5032570;28;20108;-63
2021/05/04 08:55:41;;;;;;;3.78;1.08;;;13.50;88.00;;;;;;5014633;28;20087;-63
2021/05/04 08:58:06;;;;;;;1.92;1.13;;;13.50;88.80;;;;;;5032276;28;20025;-63
2021/05/04 09:00:32;;;;;;;4.65;1.30;;;13.40;90.10;;;;;;5032055;28;20116;-63
2021/05/04 09:03:15;;;;;;;9.73;1.63;;;13.30;90.90;;;;;;5032359;28;20048;-63
2021/05/04 09:06:02;;;;;;;14.70;1.42;;;13.20;91.60;;;;;;5014923;28;20026;-62
2021/05/04 09:08:56;;;;;;;2.30;1.10;;;13.10;91.80;;;;;;5014805;28;20088;-62
2021/05/04 09:11:42;;;;;;;2.08;0.70;;;13.00;92.30;;;;;;5031368;28;20099;-64
2021/05/04 09:14:17;;;;;;;1.83;0.95;;;13.00;92.40;;;;;;5040767;28;20125;-63
2021/05/04 09:17:18;;;;;;;7.07;1.00;;;13.10;92.80;;;;;;5051997;28;20047;-63
2021/05/04 09:22:43;;;;;;;5.85;0.90;;;13.00;93.20;;;;;;5052054;28;20041;-63
2021/05/04 09:25:27;;;;;;;4.32;1.00;;;13.00;93.60;;;;;;5052177;28;20613;-64
2021/05/04 09:28:09;;;;;;;2.70;1.00;;;13.00;93.90;;;;;;5051792;28;20390;-63
2021/05/04 09:30:36;;;;;;;2.10;0.98;;;13.10;93.60;;;;;;5051878;28;20064;-64
2021/05/04 09:33:06;;;;;;;2.20;0.90;;;13.10;93.60;;;;;;5048415;28;20032;-63
2021/05/04 09:35:33;;;;;;;2.00;0.77;;;13.20;93.70;;;;;;5052454;28;20052;-63
2021/05/04 09:38:10;;;;;;;6.55;1.63;;;13.40;93.80;;;;;;5052161;28;20063;-73
2021/05/04 09:40:41;;;;;;;7.68;1.20;;;13.40;94.00;;;;;;5051982;28;20033;-62
2021/05/04 09:43:14;;;;;;;;;;;13.50;94.00;;;;;;5047943;28;20033;-64
2021/05/04 09:45:55;;;;;;;4.85;0.93;;;13.40;94.60;;;;;;5030974;28;20007;-64
2021/05/04 09:48:32;;;;;;;9.95;1.45;;;13.50;94.70;;;;;;5014097;28;20041;-63
2021/05/04 09:51:15;;;;;;;6.05;1.00;;;13.50;94.80;;;;;;5031334;28;20037;-62
2021/05/04 09:56:35;;;;;;;2.97;0.85;;;13.50;95.00;;;;;;5030834;28;20037;-62
2021/05/04 09:59:02;;;;;;;;;;;13.50;95.70;;;;;;5014764;28;20080;-62
2021/05/04 10:01:28;;;;;;;9.00;2.25;;;13.40;95.80;;;;;;5031717;28;19917;-62
2021/05/04 10:03:55;;;;;;;5.18;0.90;;;13.30;96.50;;;;;;5031889;28;20033;-64
2021/05/04 10:06:22;;;;;;;20.77;2.58;;;13.20;97.20;;;;;;5019318;28;20037;-63
2021/05/04 10:08:50;;;;;;;55.10;3.35;;;13.10;97.50;;;;;;5036021;28;20386;-64
2021/05/04 10:11:19;;;;;;;22.58;1.88;;;13.20;97.80;;;;;;5035859;28;20120;-62
2021/05/04 10:13:52;;;;;;;3.78;1.25;;;13.10;97.80;;;;;;5035559;28;20116;-62
2021/05/04 10:16:27;;;;;;;16.33;1.30;;;13.10;97.70;;;;;;5035709;28;20091;-62
2021/05/04 10:19:03;;;;;;;14.45;2.10;;;13.10;97.80;;;;;;5034246;28;20052;-62
2021/05/04 10:21:30;;;;;;;4.45;1.15;;;13.00;98.30;;;;;;5030357;28;20495;-63
2021/05/04 10:23:56;;;;;;;3.13;1.13;;;13.00;98.10;;;;;;5015361;28;20061;-63
2021/05/04 10:26:28;;;;;;;1.48;0.90;;;13.00;98.60;;;;;;5030854;28;20430;-63
2021/05/04 10:29:07;;;;;;;1.58;0.77;;;13.10;99.10;;;;;;5015553;28;20029;-63
2021/05/04 10:31:43;;;;;;;5.50;1.02;;;13.00;98.70;;;;;;5015451;28;20034;-64
2021/05/04 10:34:27;;;;;;;10.13;1.30;;;13.00;99.00;;;;;;4997589;28;20029;-62
2021/05/04 10:37:13;;;;;;;16.27;1.55;;;12.80;99.70;;;;;;5015389;28;20095;-62
2021/05/04 10:39:46;;;;;;;14.32;1.67;;;12.80;99.80;;;;;;5029233;28;20077;-62
2021/05/04 10:42:17;;;;;;;8.98;1.95;;;12.80;99.90;;;;;;5015246;28;20034;-62
2021/05/04 10:44:57;;;;;;;14.40;1.37;;;12.90;99.90;;;;;;5028928;28;20041;-62
2021/05/04 10:47:46;;;;;;;23.75;2.30;;;12.80;99.90;;;;;;5034897;28;20288;-63
2021/05/04 10:50:17;;;;;;;5.05;1.67;;;12.70;99.90;;;;;;5034661;28;20083;-62
2021/05/04 10:52:48;;;;;;;6.55;1.08;;;12.70;99.90;;;;;;5034741;28;20088;-63
2021/05/04 10:55:16;;;;;;;10.38;1.08;;;12.80;99.90;;;;;;5034372;28;20075;-63
2021/05/04 10:58:00;;;;;;;54.53;4.60;;;12.70;99.90;;;;;;5034493;28;20036;-63
2021/05/04 11:00:48;;;;;;;6.95;1.33;;;12.70;99.90;;;;;;4995016;28;20077;-63
2021/05/04 11:03:29;;;;;;;4.22;1.23;;;12.70;99.90;;;;;;5014624;28;20100;-63
2021/05/04 11:06:06;;;;;;;3.03;1.02;;;12.80;99.90;;;;;;5014594;28;20056;-62
2021/05/04 11:08:41;;;;;;;4.25;1.33;;;12.80;99.90;;;;;;5014324;28;20121;-63
2021/05/04 11:11:20;;;;;;;10.27;1.58;;;12.90;99.90;;;;;;5014536;28;20509;-63
2021/05/04 11:13:47;;;;;;;33.15;5.55;;;12.90;99.90;;;;;;5008939;28;20030;-63
2021/05/04 11:16:41;;;;;;;2.58;1.17;;;12.80;99.90;;;;;;4977209;28;20034;-62
2021/05/04 11:19:17;;;;;;;18.08;1.90;;;12.90;99.90;;;;;;4994745;28;20117;-63
2021/05/04 11:21:48;;;;;;;4.03;0.85;;;12.90;99.90;;;;;;4994709;28;20042;-62
2021/05/04 11:24:20;;;;;;;24.08;2.03;;;12.90;99.90;;;;;;4977270;28;20037;-63
2021/05/04 11:26:48;;;;;;;1.83;1.00;;;13.00;99.90;;;;;;4994697;28;20487;-62
2021/05/04 11:29:17;;;;;;;12.63;1.60;;;13.00;99.90;;;;;;4994789;28;20044;-63
2021/05/04 11:31:54;;;;;;;3.97;0.82;;;12.90;99.90;;;;;;4993548;28;20077;-64
2021/05/04 11:34:40;;;;;;;5.72;1.20;;;13.00;99.90;;;;;;4993629;28;20034;-64
2021/05/04 11:37:32;;;;;;;15.55;1.58;;;13.00;99.90;;;;;;4994355;28;20046;-63
2021/05/04 11:40:09;;;;;;;1.33;0.80;;;13.10;99.90;;;;;;4988643;28;20042;-63
2021/05/04 11:42:50;;;;;;;8.30;1.17;;;13.10;99.90;;;;;;4994318;28;20034;-63
2021/05/04 11:45:25;;;;;;;6.95;1.48;;;13.10;99.90;;;;;;5028973;28;20037;-62
2021/05/04 11:47:54;;;;;;;19.55;1.63;;;13.00;99.90;;;;;;5048570;28;20064;-63
2021/05/04 11:50:33;;;;;;;4.28;2.47;;;13.10;99.90;;;;;;5033696;28;20029;-63
2021/05/04 11:53:06;;;;;;;48.47;3.63;;;13.10;99.90;;;;;;5033657;28;20175;-62
2021/05/04 11:55:36;;;;;;;5.63;1.40;;;13.10;99.90;;;;;;5033473;28;20029;-63
2021/05/04 11:58:15;;;;;;;2.33;1.13;;;13.00;99.90;;;;;;5048426;28;20118;-63
2021/05/04 12:00:41;;;;;;;5.50;1.05;;;13.00;99.90;;;;;;5033520;28;20041;-63
2021/05/04 12:03:09;;;;;;;2.47;0.70;;;12.90;99.90;;;;;;5033496;28;20033;-63
2021/05/04 12:05:37;;;;;;;5.18;1.10;;;12.80;99.90;;;;;;5033505;28;20037;-62
2021/05/04 12:08:04;;;;;;;20.63;1.30;;;12.80;99.90;;;;;;5033413;28;20108;-62
2021/05/04 12:10:39;;;;;;;21.48;2.05;;;12.60;99.90;;;;;;5048353;28;20029;-63
2021/05/04 12:13:08;;;;;;;29.13;1.88;;;12.50;99.90;;;;;;5033052;28;20321;-63
2021/05/04 12:15:38;;;;;;;19.42;1.65;;;12.40;99.90;;;;;;5032572;28;20087;-63
2021/05/04 12:18:06;;;;;;;2.03;0.90;;;12.40;99.90;;;;;;5048157;28;20087;-62
2021/05/04 12:20:57;;;;;;;5.57;1.20;;;12.30;99.90;;;;;;5032909;28;20044;-62
2021/05/04 12:23:29;;;;;;;;;;;12.30;99.90;;;;;;5032511;28;20046;-63
2021/05/04 12:26:05;;;;;;;11.18;1.10;;;12.40;99.90;;;;;;5032699;28;20343;-63
2021/05/04 12:28:57;;;;;;;2.42;1.60;;;12.30;99.90;;;;;;5047319;28;20029;-62
2021/05/04 12:31:33;;;;;;;1.77;0.80;;;12.30;99.90;;;;;;5032096;28;20124;-63
2021/05/04 12:33:59;;;;;;;1.55;0.80;;;12.50;99.90;;;;;;5033190;28;20394;-62
2021/05/04 12:36:57;;;;;;;13.70;1.25;;;12.50;99.90;;;;;;5047324;28;20040;-62
2021/05/04 12:39:32;;;;;;;2.00;1.02;;;12.60;99.90;;;;;;5032162;28;20049;-63
2021/05/04 12:42:23;;;;;;;2.33;0.80;;;12.70;99.90;;;;;;5032509;28;20025;-63
2021/05/04 12:44:48;;;;;;;4.32;0.70;;;12.80;99.90;;;;;;5032365;28;20037;-63
2021/05/04 12:47:16;;;;;;;4.45;0.70;;;12.80;99.90;;;;;;5014927;28;20033;-63
2021/05/04 12:49:46;;;;;;;2.38;0.70;;;12.80;99.90;;;;;;5015453;28;20029;-61
2021/05/04 12:52:16;;;;;;;2.70;0.68;;;12.70;99.90;;;;;;5032444;28;20079;-62
2021/05/04 12:54:45;;;;;;;1.58;0.70;;;12.70;99.90;;;;;;5047179;28;20486;-62
2021/05/04 12:57:22;;;;;;;4.40;0.75;;;12.80;99.90;;;;;;5032372;28;20029;-63
2021/05/04 12:59:48;;;;;;;1.05;0.75;;;12.80;99.90;;;;;;5032230;28;20368;-63
2021/05/04 13:02:40;;;;;;;2.08;0.88;;;12.70;99.90;;;;;;5032086;28;20106;-63
2021/05/04 13:05:20;;;;;;;2.85;0.90;;;12.70;99.90;;;;;;5011790;28;20099;-63